sensor_id;sensor_type;location;lat;lon;timestamp;pressure;altitude;pressure_sealevel;temperature;humidity
30897;BME280;64229;52.246;21.054;2023-03-23T00:01:10;99895.78;;;8.48;98.15
30897;BME280;64229;52.246;21.054;2023-03-23T00:03:38;99882.50;;;8.53;97.80
30897;BME280;64229;52.246;21.054;2023-03-23T00:06:04;99884.91;;;8.55;98.01
30897;BME280;64229;52.246;21.054;2023-03-23T00:08:37;99885.72;;;8.55;97.70
30897;BME280;64229;52.246;21.054;2023-03-23T00:11:10;99880.91;;;8.57;97.64
30897;BME280;64229;52.246;21.054;2023-03-23T00:13:35;99877.97;;;8.44;98.05
30897;BME280;64229;52.246;21.054;2023-03-23T00:16:01;99866.72;;;8.31;98.53
30897;BME280;64229;52.246;21.054;2023-03-23T00:18:27;99876.31;;;8.37;98.90
30897;BME280;64229;52.246;21.054;2023-03-23T00:20:54;99848.84;;;8.22;98.98
30897;BME280;64229;52.246;21.054;2023-03-23T00:23:24;99874.47;;;8.38;98.71
30897;BME280;64229;52.246;21.054;2023-03-23T00:25:55;99872.59;;;8.38;98.75
30897;BME280;64229;52.246;21.054;2023-03-23T00:28:25;99869.72;;;8.40;98.80
30897;BME280;64229;52.246;21.054;2023-03-23T00:31:05;99876.84;;;8.39;98.82
30897;BME280;64229;52.246;21.054;2023-03-23T00:33:33;99869.72;;;8.40;98.86
30897;BME280;64229;52.246;21.054;2023-03-23T00:36:12;99843.03;;;8.30;98.45
30897;BME280;64229;52.246;21.054;2023-03-23T00:38:39;99878.72;;;8.39;98.68
30897;BME280;64229;52.246;21.054;2023-03-23T00:41:06;99872.28;;;8.30;99.44
30897;BME280;64229;52.246;21.054;2023-03-23T00:43:32;99862.41;;;8.20;99.90
30897;BME280;64229;52.246;21.054;2023-03-23T00:46:01;99860.28;;;8.22;100.00
30897;BME280;64229;52.246;21.054;2023-03-23T00:48:29;99860.81;;;8.19;100.00
30897;BME280;64229;52.246;21.054;2023-03-23T00:50:55;99859.75;;;8.25;100.00
30897;BME280;64229;52.246;21.054;2023-03-23T00:53:21;99836.31;;;8.12;100.00
30897;BME280;64229;52.246;21.054;2023-03-23T00:55:48;99852.06;;;8.24;100.00
30897;BME280;64229;52.246;21.054;2023-03-23T00:58:14;99851.81;;;8.30;99.61
30897;BME280;64229;52.246;21.054;2023-03-23T01:00:40;99853.13;;;8.28;99.72
30897;BME280;64229;52.246;21.054;2023-03-23T01:03:07;99845.47;;;8.36;99.22
30897;BME280;64229;52.246;21.054;2023-03-23T01:05:36;99847.06;;;8.37;99.09
30897;BME280;64229;52.246;21.054;2023-03-23T01:08:03;99847.63;;;8.45;98.80
30897;BME280;64229;52.246;21.054;2023-03-23T01:10:30;99835.97;;;8.51;98.24
30897;BME280;64229;52.246;21.054;2023-03-23T01:12:59;99835.13;;;8.45;98.23
30897;BME280;64229;52.246;21.054;2023-03-23T01:15:26;99837.03;;;8.55;98.08
30897;BME280;64229;52.246;21.054;2023-03-23T01:17:51;99845.53;;;8.57;97.77
30897;BME280;64229;52.246;21.054;2023-03-23T01:20:17;99834.41;;;8.65;97.33
30897;BME280;64229;52.246;21.054;2023-03-23T01:22:42;99838.13;;;8.69;96.91
30897;BME280;64229;52.246;21.054;2023-03-23T01:25:10;99836.50;;;8.58;97.16
30897;BME280;64229;52.246;21.054;2023-03-23T01:27:36;99824.78;;;8.44;97.62
30897;BME280;64229;52.246;21.054;2023-03-23T01:30:03;99846.34;;;8.57;97.56
30897;BME280;64229;52.246;21.054;2023-03-23T01:32:28;99840.47;;;8.50;97.67
30897;BME280;64229;52.246;21.054;2023-03-23T01:34:54;99838.38;;;8.67;96.75
30897;BME280;64229;52.246;21.054;2023-03-23T01:37:19;99853.03;;;8.65;96.67
30897;BME280;64229;52.246;21.054;2023-03-23T01:39:45;99843.69;;;8.57;97.06
30897;BME280;64229;52.246;21.054;2023-03-23T01:42:11;99847.91;;;8.48;97.96
30897;BME280;64229;52.246;21.054;2023-03-23T01:47:02;99833.00;;;8.42;98.52
30897;BME280;64229;52.246;21.054;2023-03-23T01:49:33;99835.13;;;8.40;98.67
30897;BME280;64229;52.246;21.054;2023-03-23T01:52:05;99817.50;;;8.29;98.77
30897;BME280;64229;52.246;21.054;2023-03-23T01:54:32;99817.75;;;8.27;99.08
30897;BME280;64229;52.246;21.054;2023-03-23T01:57:01;99840.66;;;8.33;99.27
30897;BME280;64229;52.246;21.054;2023-03-23T01:59:29;99827.09;;;8.30;99.58
30897;BME280;64229;52.246;21.054;2023-03-23T02:01:55;99828.16;;;8.34;99.41
30897;BME280;64229;52.246;21.054;2023-03-23T02:04:22;99825.50;;;8.34;99.58
30897;BME280;64229;52.246;21.054;2023-03-23T02:06:49;99804.16;;;8.08;99.76
30897;BME280;64229;52.246;21.054;2023-03-23T02:09:15;99803.06;;;8.04;100.00
30897;BME280;64229;52.246;21.054;2023-03-23T02:11:42;99823.84;;;8.18;100.00
30897;BME280;64229;52.246;21.054;2023-03-23T02:14:08;99809.75;;;8.17;100.00
30897;BME280;64229;52.246;21.054;2023-03-23T02:24:39;99808.97;;;8.27;100.00
30897;BME280;64229;52.246;21.054;2023-03-23T02:27:12;99802.34;;;8.29;100.00
30897;BME280;64229;52.246;21.054;2023-03-23T02:32:47;99799.47;;;8.36;100.00
30897;BME280;64229;52.246;21.054;2023-03-23T02:35:25;99797.13;;;8.45;99.68
30897;BME280;64229;52.246;21.054;2023-03-23T02:38:18;99810.16;;;8.51;98.98
30897;BME280;64229;52.246;21.054;2023-03-23T02:40:48;99777.16;;;8.42;98.58
30897;BME280;64229;52.246;21.054;2023-03-23T02:43:18;99795.25;;;8.50;98.88
30897;BME280;64229;52.246;21.054;2023-03-23T02:45:45;99793.13;;;8.47;99.04
30897;BME280;64229;52.246;21.054;2023-03-23T02:48:13;99796.88;;;8.51;98.89
30897;BME280;64229;52.246;21.054;2023-03-23T02:50:44;99795.50;;;8.44;99.44
30897;BME280;64229;52.246;21.054;2023-03-23T02:53:13;99765.97;;;8.35;99.39
30897;BME280;64229;52.246;21.054;2023-03-23T02:55:42;99782.50;;;8.52;98.60
30897;BME280;64229;52.246;21.054;2023-03-23T02:58:11;99797.69;;;8.67;98.23
30897;BME280;64229;52.246;21.054;2023-03-23T03:00:38;99801.97;;;8.73;97.75
30897;BME280;64229;52.246;21.054;2023-03-23T03:03:05;99800.34;;;8.82;97.42
30897;BME280;64229;52.246;21.054;2023-03-23T03:10:48;99800.13;;;8.94;96.50
30897;BME280;64229;52.246;21.054;2023-03-23T03:16:00;99804.34;;;8.90;96.71
30897;BME280;64229;52.246;21.054;2023-03-23T03:18:46;99788.66;;;8.78;97.26
30897;BME280;64229;52.246;21.054;2023-03-23T03:21:14;99787.84;;;8.78;97.33
30897;BME280;64229;52.246;21.054;2023-03-23T03:23:43;99792.38;;;8.82;97.31
30897;BME280;64229;52.246;21.054;2023-03-23T03:26:12;99799.31;;;8.93;96.71
30897;BME280;64229;52.246;21.054;2023-03-23T03:28:44;99793.44;;;8.91;96.46
30897;BME280;64229;52.246;21.054;2023-03-23T03:31:13;99798.78;;;9.02;96.02
30897;BME280;64229;52.246;21.054;2023-03-23T03:33:40;99804.91;;;9.07;95.73
30897;BME280;64229;52.246;21.054;2023-03-23T03:36:06;99798.25;;;8.99;95.99
30897;BME280;64229;52.246;21.054;2023-03-23T03:38:44;99811.56;;;9.10;95.54
30897;BME280;64229;52.246;21.054;2023-03-23T03:41:10;99810.22;;;9.12;95.41
30897;BME280;64229;52.246;21.054;2023-03-23T03:43:35;99815.03;;;9.05;95.86
30897;BME280;64229;52.246;21.054;2023-03-23T03:46:01;99819.81;;;9.08;95.95
30897;BME280;64229;52.246;21.054;2023-03-23T03:48:27;99815.28;;;9.19;95.25
30897;BME280;64229;52.246;21.054;2023-03-23T03:50:52;99816.63;;;9.21;94.76
30897;BME280;64229;52.246;21.054;2023-03-23T03:53:22;99812.63;;;9.24;94.73
30897;BME280;64229;52.246;21.054;2023-03-23T03:55:47;99808.66;;;9.16;94.73
30897;BME280;64229;52.246;21.054;2023-03-23T03:58:16;99811.03;;;9.13;95.08
30897;BME280;64229;52.246;21.054;2023-03-23T04:00:42;99801.44;;;9.02;95.31
30897;BME280;64229;52.246;21.054;2023-03-23T04:03:08;99796.13;;;9.02;95.76
30897;BME280;64229;52.246;21.054;2023-03-23T04:05:34;99765.50;;;8.79;96.37
30897;BME280;64229;52.246;21.054;2023-03-23T04:08:02;99793.47;;;8.86;96.63
30897;BME280;64229;52.246;21.054;2023-03-23T04:10:29;99784.41;;;8.77;97.24
30897;BME280;64229;52.246;21.054;2023-03-23T04:12:55;99793.41;;;8.71;97.47
30897;BME280;64229;52.246;21.054;2023-03-23T04:15:21;99789.16;;;8.70;97.93
30897;BME280;64229;52.246;21.054;2023-03-23T04:17:47;99788.13;;;8.76;97.76
30897;BME280;64229;52.246;21.054;2023-03-23T04:20:12;99795.56;;;8.79;97.31
30897;BME280;64229;52.246;21.054;2023-03-23T04:22:47;99778.03;;;8.73;97.18
30897;BME280;64229;52.246;21.054;2023-03-23T04:25:16;99791.31;;;8.78;97.23
30897;BME280;64229;52.246;21.054;2023-03-23T04:27:43;99787.31;;;8.81;97.09
30897;BME280;64229;52.246;21.054;2023-03-23T04:30:10;99795.59;;;8.84;96.83
30897;BME280;64229;52.246;21.054;2023-03-23T04:32:39;99788.41;;;8.85;96.77
30897;BME280;64229;52.246;21.054;2023-03-23T04:35:11;99788.13;;;8.86;96.96
30897;BME280;64229;52.246;21.054;2023-03-23T04:37:38;99790.53;;;8.83;96.92
30897;BME280;64229;52.246;21.054;2023-03-23T04:40:05;99788.38;;;8.80;97.00
30897;BME280;64229;52.246;21.054;2023-03-23T04:42:34;99775.34;;;8.78;96.78
30897;BME280;64229;52.246;21.054;2023-03-23T04:45:00;99782.00;;;8.76;96.82
30897;BME280;64229;52.246;21.054;2023-03-23T04:47:30;99787.06;;;8.77;97.13
30897;BME280;64229;52.246;21.054;2023-03-23T04:49:56;99775.88;;;8.70;97.05
30897;BME280;64229;52.246;21.054;2023-03-23T04:52:26;99791.59;;;8.87;96.77
30897;BME280;64229;52.246;21.054;2023-03-23T04:54:54;99787.31;;;8.91;96.51
30897;BME280;64229;52.246;21.054;2023-03-23T04:57:21;99772.69;;;8.88;96.13
30897;BME280;64229;52.246;21.054;2023-03-23T04:59:47;99777.75;;;8.85;96.52
30897;BME280;64229;52.246;21.054;2023-03-23T05:02:12;99753.00;;;8.69;96.94
30897;BME280;64229;52.246;21.054;2023-03-23T05:04:38;99775.59;;;8.82;96.82
30897;BME280;64229;52.246;21.054;2023-03-23T05:07:06;99778.28;;;8.87;96.52
30897;BME280;64229;52.246;21.054;2023-03-23T05:09:32;99780.69;;;8.88;96.27
30897;BME280;64229;52.246;21.054;2023-03-23T05:11:57;99781.50;;;8.94;96.15
30897;BME280;64229;52.246;21.054;2023-03-23T05:14:24;99783.06;;;9.00;95.95
30897;BME280;64229;52.246;21.054;2023-03-23T05:16:50;99780.94;;;9.02;96.10
30897;BME280;64229;52.246;21.054;2023-03-23T05:19:17;99768.97;;;8.84;95.89
30897;BME280;64229;52.246;21.054;2023-03-23T05:21:42;99775.09;;;8.85;96.25
30897;BME280;64229;52.246;21.054;2023-03-23T05:24:10;99771.91;;;8.73;96.78
30897;BME280;64229;52.246;21.054;2023-03-23T05:26:35;99781.75;;;8.77;96.91
30897;BME280;64229;52.246;21.054;2023-03-23T05:29:00;99787.84;;;8.78;96.84
30897;BME280;64229;52.246;21.054;2023-03-23T05:31:26;99778.53;;;8.80;96.65
30897;BME280;64229;52.246;21.054;2023-03-23T05:33:52;99744.22;;;8.53;97.29
30897;BME280;64229;52.246;21.054;2023-03-23T05:36:17;99763.91;;;8.67;97.86
30897;BME280;64229;52.246;21.054;2023-03-23T05:38:43;99777.19;;;8.67;97.46
30897;BME280;64229;52.246;21.054;2023-03-23T05:41:13;99778.53;;;8.70;97.55
30897;BME280;64229;52.246;21.054;2023-03-23T05:43:38;99786.50;;;8.70;97.43
30897;BME280;64229;52.246;21.054;2023-03-23T05:46:04;99788.13;;;8.81;96.97
30897;BME280;64229;52.246;21.054;2023-03-23T05:48:29;99793.72;;;9.00;96.40
30897;BME280;64229;52.246;21.054;2023-03-23T05:50:55;99787.34;;;8.96;95.74
30897;BME280;64229;52.246;21.054;2023-03-23T05:53:21;99791.31;;;9.04;96.19
30897;BME280;64229;52.246;21.054;2023-03-23T05:55:46;99784.13;;;9.09;95.13
30897;BME280;64229;52.246;21.054;2023-03-23T05:58:12;99790.53;;;9.13;95.08
30897;BME280;64229;52.246;21.054;2023-03-23T06:00:37;99790.78;;;9.22;94.59
30897;BME280;64229;52.246;21.054;2023-03-23T06:03:04;99792.66;;;9.32;94.23
30897;BME280;64229;52.246;21.054;2023-03-23T06:05:29;99781.47;;;9.40;93.32
30897;BME280;64229;52.246;21.054;2023-03-23T06:07:55;99777.97;;;9.34;92.82
30897;BME280;64229;52.246;21.054;2023-03-23T06:10:21;99797.16;;;9.51;93.19
30897;BME280;64229;52.246;21.054;2023-03-23T06:12:49;99793.13;;;9.64;92.12
30897;BME280;64229;52.246;21.054;2023-03-23T06:15:16;99790.97;;;9.66;91.28
30897;BME280;64229;52.246;21.054;2023-03-23T06:17:41;99794.13;;;9.83;91.01
30897;BME280;64229;52.246;21.054;2023-03-23T06:20:07;99798.94;;;9.81;90.42
30897;BME280;64229;52.246;21.054;2023-03-23T06:22:37;99798.97;;;9.71;90.90
30897;BME280;64229;52.246;21.054;2023-03-23T06:25:09;99787.00;;;9.64;91.33
30897;BME280;64229;52.246;21.054;2023-03-23T06:27:36;99788.59;;;9.65;91.25
30897;BME280;64229;52.246;21.054;2023-03-23T06:30:03;99789.13;;;9.62;91.39
30897;BME280;64229;52.246;21.054;2023-03-23T06:32:30;99793.09;;;9.74;91.01
30897;BME280;64229;52.246;21.054;2023-03-23T06:34:57;99776.06;;;9.65;90.69
30897;BME280;64229;52.246;21.054;2023-03-23T06:37:23;99793.03;;;9.95;90.18
30897;BME280;64229;52.246;21.054;2023-03-23T06:39:49;99796.44;;;10.10;89.01
30897;BME280;64229;52.246;21.054;2023-03-23T06:42:15;99801.72;;;10.26;89.34
30897;BME280;64229;52.246;21.054;2023-03-23T06:44:40;99807.25;;;10.39;88.99
30897;BME280;64229;52.246;21.054;2023-03-23T06:47:06;99782.06;;;10.61;86.57
30897;BME280;64229;52.246;21.054;2023-03-23T06:49:33;99795.53;;;10.85;85.62
30897;BME280;64229;52.246;21.054;2023-03-23T06:51:58;99795.72;;;10.93;84.74
30897;BME280;64229;52.246;21.054;2023-03-23T06:54:25;99778.22;;;10.77;84.52
30897;BME280;64229;52.246;21.054;2023-03-23T06:56:51;99781.09;;;10.86;84.36
30897;BME280;64229;52.246;21.054;2023-03-23T06:59:16;99795.00;;;10.83;84.94
30897;BME280;64229;52.246;21.054;2023-03-23T07:01:42;99786.63;;;10.94;84.79
30897;BME280;64229;52.246;21.054;2023-03-23T07:04:07;99782.63;;;10.97;84.22
30897;BME280;64229;52.246;21.054;2023-03-23T07:06:33;99800.34;;;11.17;84.78
30897;BME280;64229;52.246;21.054;2023-03-23T07:08:58;99797.81;;;11.30;84.13
30897;BME280;64229;52.246;21.054;2023-03-23T07:11:23;99803.47;;;11.53;83.45
30897;BME280;64229;52.246;21.054;2023-03-23T07:13:49;99787.84;;;11.65;83.40
30897;BME280;64229;52.246;21.054;2023-03-23T07:16:16;99804.69;;;11.95;82.55
30897;BME280;64229;52.246;21.054;2023-03-23T07:18:42;99800.00;;;12.05;81.78
30897;BME280;64229;52.246;21.054;2023-03-23T07:21:07;99804.06;;;12.22;80.40
30897;BME280;64229;52.246;21.054;2023-03-23T07:23:33;99798.72;;;12.22;80.32
30897;BME280;64229;52.246;21.054;2023-03-23T07:25:58;99779.47;;;12.20;78.84
30897;BME280;64229;52.246;21.054;2023-03-23T07:28:24;99796.09;;;12.59;79.48
30897;BME280;64229;52.246;21.054;2023-03-23T07:30:50;99801.63;;;12.82;78.88
30897;BME280;64229;52.246;21.054;2023-03-23T07:33:16;99819.13;;;13.12;76.58
30897;BME280;64229;52.246;21.054;2023-03-23T07:35:41;99808.00;;;13.18;76.23
30897;BME280;64229;52.246;21.054;2023-03-23T07:38:07;99806.69;;;13.21;74.98
30897;BME280;64229;52.246;21.054;2023-03-23T07:40:33;99815.06;;;13.47;74.10
30897;BME280;64229;52.246;21.054;2023-03-23T07:42:59;99816.47;;;13.58;74.53
30897;BME280;64229;52.246;21.054;2023-03-23T07:45:25;99809.16;;;13.64;73.92
30897;BME280;64229;52.246;21.054;2023-03-23T07:47:51;99816.19;;;13.59;72.88
30897;BME280;64229;52.246;21.054;2023-03-23T07:50:18;99812.50;;;13.42;73.14
30897;BME280;64229;52.246;21.054;2023-03-23T07:52:47;99813.63;;;13.22;72.99
30897;BME280;64229;52.246;21.054;2023-03-23T07:55:13;99806.59;;;13.40;73.59
30897;BME280;64229;52.246;21.054;2023-03-23T07:57:48;99808.97;;;13.74;72.17
30897;BME280;64229;52.246;21.054;2023-03-23T08:00:16;99805.31;;;13.83;70.82
30897;BME280;64229;52.246;21.054;2023-03-23T08:02:54;99811.84;;;13.77;70.67
30897;BME280;64229;52.246;21.054;2023-03-23T08:05:23;99801.50;;;13.98;69.82
30897;BME280;64229;52.246;21.054;2023-03-23T08:07:51;99800.44;;;13.85;69.50
30897;BME280;64229;52.246;21.054;2023-03-23T08:10:17;99794.34;;;14.07;69.40
30897;BME280;64229;52.246;21.054;2023-03-23T08:12:43;99788.25;;;14.29;68.31
30897;BME280;64229;52.246;21.054;2023-03-23T08:15:10;99810.75;;;14.47;67.02
30897;BME280;64229;52.246;21.054;2023-03-23T08:17:42;99797.53;;;14.09;67.65
30897;BME280;64229;52.246;21.054;2023-03-23T08:20:09;99799.59;;;14.12;67.90
30897;BME280;64229;52.246;21.054;2023-03-23T08:22:39;99797.13;;;14.16;68.07
30897;BME280;64229;52.246;21.054;2023-03-23T08:25:06;99782.97;;;14.38;67.44
30897;BME280;64229;52.246;21.054;2023-03-23T08:27:32;99774.13;;;14.51;67.08
30897;BME280;64229;52.246;21.054;2023-03-23T08:29:57;99778.72;;;14.73;65.51
30897;BME280;64229;52.246;21.054;2023-03-23T08:32:23;99772.56;;;14.72;66.09
30897;BME280;64229;52.246;21.054;2023-03-23T08:34:49;99761.69;;;14.77;65.88
30897;BME280;64229;52.246;21.054;2023-03-23T08:37:15;99760.38;;;14.89;65.45
30897;BME280;64229;52.246;21.054;2023-03-23T08:39:41;99759.88;;;15.18;63.38
30897;BME280;64229;52.246;21.054;2023-03-23T08:42:08;99755.75;;;15.12;63.23
30897;BME280;64229;52.246;21.054;2023-03-23T08:44:33;99758.66;;;14.70;65.25
30897;BME280;64229;52.246;21.054;2023-03-23T08:46:59;99763.56;;;14.77;64.97
30897;BME280;64229;52.246;21.054;2023-03-23T08:49:25;99760.88;;;14.77;64.58
30897;BME280;64229;52.246;21.054;2023-03-23T08:51:51;99765.66;;;15.02;64.68
30897;BME280;64229;52.246;21.054;2023-03-23T08:54:16;99750.50;;;15.38;62.25
30897;BME280;64229;52.246;21.054;2023-03-23T08:56:42;99767.44;;;15.38;62.31
30897;BME280;64229;52.246;21.054;2023-03-23T08:59:08;99766.47;;;15.03;62.14
30897;BME280;64229;52.246;21.054;2023-03-23T09:01:34;99770.75;;;14.82;62.76
30897;BME280;64229;52.246;21.054;2023-03-23T09:03:59;99769.00;;;14.86;62.81
30897;BME280;64229;52.246;21.054;2023-03-23T09:06:25;99771.88;;;15.12;60.98
30897;BME280;64229;52.246;21.054;2023-03-23T09:08:51;99762.50;;;15.00;61.13
30897;BME280;64229;52.246;21.054;2023-03-23T09:11:18;99781.41;;;14.95;62.13
30897;BME280;64229;52.246;21.054;2023-03-23T09:13:43;99780.38;;;14.83;62.66
30897;BME280;64229;52.246;21.054;2023-03-23T09:16:09;99778.19;;;14.85;61.95
30897;BME280;64229;52.246;21.054;2023-03-23T09:18:35;99773.84;;;14.75;62.58
30897;BME280;64229;52.246;21.054;2023-03-23T09:21:02;99775.19;;;14.86;62.39
30897;BME280;64229;52.246;21.054;2023-03-23T09:23:28;99779.09;;;14.80;62.60
30897;BME280;64229;52.246;21.054;2023-03-23T09:25:55;99771.66;;;14.99;61.02
30897;BME280;64229;52.246;21.054;2023-03-23T09:28:20;99772.00;;;15.07;61.85
30897;BME280;64229;52.246;21.054;2023-03-23T09:30:46;99768.50;;;15.28;60.55
30897;BME280;64229;52.246;21.054;2023-03-23T09:33:13;99763.75;;;15.25;60.50
30897;BME280;64229;52.246;21.054;2023-03-23T09:35:39;99777.00;;;15.22;60.21
30897;BME280;64229;52.246;21.054;2023-03-23T09:38:07;99767.25;;;15.03;60.37
30897;BME280;64229;52.246;21.054;2023-03-23T09:40:39;99757.66;;;15.11;59.98
30897;BME280;64229;52.246;21.054;2023-03-23T09:45:54;99756.94;;;15.28;58.94
30897;BME280;64229;52.246;21.054;2023-03-23T09:51:51;99731.84;;;15.72;58.13
30897;BME280;64229;52.246;21.054;2023-03-23T09:54:31;99737.81;;;15.60;59.15
30897;BME280;64229;52.246;21.054;2023-03-23T09:57:00;99731.91;;;15.89;57.89
30897;BME280;64229;52.246;21.054;2023-03-23T09:59:31;99735.44;;;16.25;57.08
30897;BME280;64229;52.246;21.054;2023-03-23T10:04:47;99722.31;;;16.49;56.12
30897;BME280;64229;52.246;21.054;2023-03-23T10:07:23;99730.06;;;16.94;55.28
30897;BME280;64229;52.246;21.054;2023-03-23T10:09:53;99733.81;;;17.10;54.59
30897;BME280;64229;52.246;21.054;2023-03-23T10:12:45;99730.31;;;17.10;53.58
30897;BME280;64229;52.246;21.054;2023-03-23T10:15:19;99712.34;;;17.22;53.46
30897;BME280;64229;52.246;21.054;2023-03-23T10:18:07;99720.69;;;17.47;52.57
30897;BME280;64229;52.246;21.054;2023-03-23T10:20:53;99709.56;;;17.86;51.27
30897;BME280;64229;52.246;21.054;2023-03-23T10:25:50;99698.22;;;17.93;51.05
30897;BME280;64229;52.246;21.054;2023-03-23T10:28:34;99697.91;;;18.15;49.83
30897;BME280;64229;52.246;21.054;2023-03-23T10:31:00;99703.06;;;18.29;49.09
30897;BME280;64229;52.246;21.054;2023-03-23T10:33:34;99680.13;;;18.14;47.95
30897;BME280;64229;52.246;21.054;2023-03-23T10:38:56;99695.03;;;18.20;47.61
30897;BME280;64229;52.246;21.054;2023-03-23T10:41:23;99691.59;;;18.32;46.67
30897;BME280;64229;52.246;21.054;2023-03-23T10:43:48;99695.03;;;18.41;46.65
30897;BME280;64229;52.246;21.054;2023-03-23T10:48:43;99702.28;;;18.08;46.90
30897;BME280;64229;52.246;21.054;2023-03-23T10:51:11;99694.28;;;17.90;47.08
30897;BME280;64229;52.246;21.054;2023-03-23T10:53:46;99686.84;;;17.87;46.96
30897;BME280;64229;52.246;21.054;2023-03-23T10:56:23;99689.28;;;18.01;47.29
30897;BME280;64229;52.246;21.054;2023-03-23T10:58:50;99676.91;;;18.42;46.76
30897;BME280;64229;52.246;21.054;2023-03-23T11:01:19;99689.81;;;18.36;45.98
30897;BME280;64229;52.246;21.054;2023-03-23T11:03:47;99702.13;;;18.25;46.43
30897;BME280;64229;52.246;21.054;2023-03-23T11:06:22;99693.91;;;18.21;46.36
30897;BME280;64229;52.246;21.054;2023-03-23T11:08:57;99682.91;;;18.06;46.62
30897;BME280;64229;52.246;21.054;2023-03-23T11:11:29;99682.16;;;17.76;46.96
30897;BME280;64229;52.246;21.054;2023-03-23T11:14:11;99680.13;;;17.64;47.58
30897;BME280;64229;52.246;21.054;2023-03-23T11:16:43;99685.25;;;17.57;47.82
30897;BME280;64229;52.246;21.054;2023-03-23T11:19:31;99655.91;;;17.55;48.19
30897;BME280;64229;52.246;21.054;2023-03-23T11:22:07;99678.34;;;17.77;47.42
30897;BME280;64229;52.246;21.054;2023-03-23T11:24:35;99671.38;;;17.67;47.68
30897;BME280;64229;52.246;21.054;2023-03-23T11:27:03;99675.50;;;17.73;47.74
30897;BME280;64229;52.246;21.054;2023-03-23T11:29:32;99656.16;;;17.92;47.41
30897;BME280;64229;52.246;21.054;2023-03-23T11:34:29;99658.44;;;18.44;46.15
30897;BME280;64229;52.246;21.054;2023-03-23T11:42:24;99644.41;;;18.96;44.00
30897;BME280;64229;52.246;21.054;2023-03-23T11:45:13;99651.03;;;18.74;44.99
30897;BME280;64229;52.246;21.054;2023-03-23T11:47:43;99605.59;;;18.34;43.51
30897;BME280;64229;52.246;21.054;2023-03-23T11:50:30;99627.19;;;18.55;41.67
30897;BME280;64229;52.246;21.054;2023-03-23T11:53:27;99628.22;;;18.63;41.56
30897;BME280;64229;52.246;21.054;2023-03-23T11:56:01;99615.25;;;18.56;42.05
30897;BME280;64229;52.246;21.054;2023-03-23T11:58:29;99625.84;;;18.61;41.77
30897;BME280;64229;52.246;21.054;2023-03-23T12:06:10;99605.44;;;18.85;42.28
30897;BME280;64229;52.246;21.054;2023-03-23T12:11:15;99598.78;;;19.06;42.67
30897;BME280;64229;52.246;21.054;2023-03-23T12:19:35;99603.31;;;19.15;41.07
30897;BME280;64229;52.246;21.054;2023-03-23T12:27:53;99589.41;;;18.67;42.33
30897;BME280;64229;52.246;21.054;2023-03-23T12:30:52;99565.91;;;18.59;42.38
30897;BME280;64229;52.246;21.054;2023-03-23T12:44:10;99578.84;;;19.11;41.91
30897;BME280;64229;52.246;21.054;2023-03-23T12:49:45;99587.53;;;18.47;43.17
30897;BME280;64229;52.246;21.054;2023-03-23T12:52:53;99572.28;;;18.30;43.54
30897;BME280;64229;52.246;21.054;2023-03-23T12:55:30;99565.31;;;18.29;43.81
30897;BME280;64229;52.246;21.054;2023-03-23T12:58:06;99571.91;;;18.19;44.05
30897;BME280;64229;52.246;21.054;2023-03-23T13:04:20;99574.00;;;18.47;43.88
30897;BME280;64229;52.246;21.054;2023-03-23T13:06:42;99570.94;;;18.36;44.64
30897;BME280;64229;52.246;21.054;2023-03-23T13:09:27;99565.88;;;18.35;44.79
30897;BME280;64229;52.246;21.054;2023-03-23T13:11:57;99569.78;;;18.25;44.54
30897;BME280;64229;52.246;21.054;2023-03-23T13:22:44;99558.63;;;17.93;45.77
30897;BME280;64229;52.246;21.054;2023-03-23T13:28:01;99544.47;;;17.97;45.79
30897;BME280;64229;52.246;21.054;2023-03-23T13:30:27;99568.59;;;18.02;45.87
30897;BME280;64229;52.246;21.054;2023-03-23T13:33:06;99563.81;;;17.86;45.98
30897;BME280;64229;52.246;21.054;2023-03-23T13:35:38;99552.75;;;17.79;46.10
30897;BME280;64229;52.246;21.054;2023-03-23T13:38:19;99559.16;;;17.66;46.45
30897;BME280;64229;52.246;21.054;2023-03-23T13:40:46;99563.28;;;17.63;46.88
30897;BME280;64229;52.246;21.054;2023-03-23T13:43:12;99558.56;;;17.60;46.94
30897;BME280;64229;52.246;21.054;2023-03-23T13:45:46;99556.41;;;17.75;46.72
30897;BME280;64229;52.246;21.054;2023-03-23T13:50:58;99557.72;;;17.89;46.22
30897;BME280;64229;52.246;21.054;2023-03-23T13:53:29;99565.44;;;17.79;46.73
30897;BME280;64229;52.246;21.054;2023-03-23T13:56:21;99567.19;;;17.96;46.25
30897;BME280;64229;52.246;21.054;2023-03-23T13:59:15;99566.00;;;18.05;45.12
30897;BME280;64229;52.246;21.054;2023-03-23T14:01:41;99562.47;;;17.92;46.04
30897;BME280;64229;52.246;21.054;2023-03-23T14:04:16;99557.47;;;17.82;45.94
30897;BME280;64229;52.246;21.054;2023-03-23T14:06:43;99561.97;;;17.78;46.24
30897;BME280;64229;52.246;21.054;2023-03-23T14:09:33;99581.69;;;17.91;46.13
30897;BME280;64229;52.246;21.054;2023-03-23T14:12:26;99581.81;;;17.95;46.21
30897;BME280;64229;52.246;21.054;2023-03-23T14:14:59;99570.28;;;17.85;46.70
30897;BME280;64229;52.246;21.054;2023-03-23T14:17:31;99593.56;;;17.99;46.87
30897;BME280;64229;52.246;21.054;2023-03-23T14:19:58;99597.88;;;17.91;47.36
30897;BME280;64229;52.246;21.054;2023-03-23T14:22:26;99607.78;;;17.87;47.85
30897;BME280;64229;52.246;21.054;2023-03-23T14:25:02;99608.81;;;17.74;48.46
30897;BME280;64229;52.246;21.054;2023-03-23T14:27:34;99606.94;;;17.66;48.97
30897;BME280;64229;52.246;21.054;2023-03-23T14:30:05;99616.28;;;17.68;48.81
30897;BME280;64229;52.246;21.054;2023-03-23T14:32:32;99611.75;;;17.60;49.34
30897;BME280;64229;52.246;21.054;2023-03-23T14:34:59;99621.41;;;17.61;49.67
30897;BME280;64229;52.246;21.054;2023-03-23T14:37:26;99626.41;;;17.50;49.93
30897;BME280;64229;52.246;21.054;2023-03-23T14:39:53;99621.66;;;17.47;50.17
30897;BME280;64229;52.246;21.054;2023-03-23T14:42:26;99624.81;;;17.49;50.13